Currently 44°F in Anza, California, USA
44°F
45°F / 44°F
11 mph NW
0.01"
Tuesday, May 5, 2026 12:59 AM PDT

Anza, California Weather Summary
Last 36 Hours

Temperature Winds Hourly Humidity Dewpoint
Time Report Norm Report Norm Max Gusts Precip. Rpt. Norm Rpt. Norm Pressure
1Tue 12:59 AM  44.3°F  50°F  11 mph NW  5 mph  17 mph  0.01"  97%  77%  43°F  43°F  29.93"
3Tue 12:26 AM  43.9°F  51°F  10 mph NW  5 mph  16 mph  ----  96%  76%  43°F  43°F  29.93"
2Tue 12:00 AM  44.6°F  51°F  11 mph NW  5 mph  17 mph  0.00"  93%  76%  42°F  43°F  29.93"
Mon 11:00 PM  45.1°F  51°F  9 mph NW  5 mph  20 mph  0.00"  93%  76%  43°F  44°F  29.94"
Mon 10:00 PM  45.2°F  53°F  15 mph NW  5 mph  21 mph  0.00"  93%  74%  43°F  44°F  29.95"
Mon 09:00 PM  46.0°F  54°F  13 mph NW  6 mph  25 mph  0.00"  93%  71%  44°F  45°F  29.93"
Mon 08:00 PM  47.0°F  57°F  15 mph NW  6 mph  26 mph  0.00"  91%  65%  44°F  45°F  29.91"
Mon 07:00 PM  49.4°F  62°F  14 mph NW  8 mph  28 mph  0.00"  81%  56%  44°F  46°F  29.91"
Mon 06:00 PM  52.3°F  66°F  19 mph NW  9 mph  26 mph  0.00"  74%  50%  44°F  46°F  29.91"
Mon 05:00 PM  52.6°F  69°F  18 mph NW  10 mph  28 mph  0.00"  71%  44%  43°F  45°F  29.92"
Mon 04:00 PM  55.6°F  70°F  17 mph NW  10 mph  29 mph  0.00"  62%  41%  42°F  45°F  29.92"
Mon 03:00 PM  55.8°F  71°F  15 mph NW  10 mph  26 mph  0.00"  62%  39%  42°F  44°F  29.93"
Mon 02:00 PM  56.6°F  71°F  15 mph NW  9 mph  23 mph  0.00"  59%  38%  42°F  44°F  29.96"
Mon 01:00 PM  52.8°F  71°F  15 mph NW  9 mph  24 mph  0.00"  66%  37%  41°F  42°F  29.96"
Mon 12:00 PM  52.0°F  70°F  13 mph NW  8 mph  23 mph  0.00"  65%  37%  40°F  42°F  29.98"
Mon 11:00 AM  51.1°F  69°F  17 mph NW  8 mph  22 mph  0.00"  69%  40%  41°F  42°F  29.97"
Mon 10:00 AM  49.7°F  66°F  13 mph NW  7 mph  22 mph  0.00"  71%  43%  40°F  42°F  29.96"
Mon 09:00 AM  46.0°F  63°F  12 mph NW  7 mph  20 mph  0.00"  87%  50%  42°F  43°F  29.94"
Mon 08:00 AM  44.5°F  59°F  13 mph NW  6 mph  20 mph  0.00"  93%  59%  42°F  44°F  29.93"
Mon 07:00 AM  44.0°F  52°F  16 mph NW  5 mph  22 mph  0.00"  95%  70%  43°F  43°F  29.93"
Mon 06:00 AM  44.5°F  49°F  13 mph NW  4 mph  19 mph  0.00"  96%  73%  43°F  40°F  29.92"
Mon 05:00 AM  45.0°F  49°F  10 mph NW  5 mph  21 mph  0.00"  95%  73%  44°F  41°F  29.89"
Mon 04:00 AM  44.9°F  49°F  12 mph NW  5 mph  18 mph  0.00"  94%  75%  43°F  41°F  29.90"
Mon 03:00 AM  45.2°F  50°F  11 mph NW  5 mph  22 mph  0.00"  90%  75%  42°F  42°F  29.90"
Mon 02:00 AM  45.3°F  50°F  14 mph NW  5 mph  21 mph  0.00"  94%  75%  43°F  42°F  29.90"
Mon 01:00 AM  45.6°F  50°F  11 mph NW  5 mph  20 mph  0.00"  93%  75%  44°F  42°F  29.93"
Mon 12:00 AM  45.6°F  51°F  13 mph NW  5 mph  21 mph  0.00"  89%  74%  42°F  43°F  29.91"
Sun 11:00 PM  45.7°F  52°F  15 mph NW  5 mph  20 mph  0.00"  94%  75%  44°F  43°F  29.90"
Sun 10:00 PM  45.4°F  53°F  15 mph NW  5 mph  21 mph  0.00"  95%  73%  44°F  44°F  29.90"
Sun 09:00 PM  47.1°F  55°F  11 mph NW  5 mph  20 mph  0.00"  94%  69%  45°F  44°F  29.90"
Sun 08:00 PM  48.2°F  57°F  13 mph NW  6 mph  23 mph  0.00"  91%  64%  45°F  45°F  29.88"
Sun 07:00 PM  51.3°F  62°F  13 mph NW  8 mph  23 mph  0.00"  84%  55%  47°F  46°F  29.85"
Sun 06:00 PM  58.4°F  66°F  15 mph NW  9 mph  20 mph  0.00"  72%  48%  49°F  45°F  29.84"
Sun 05:00 PM  61.5°F  69°F  10 mph NW  10 mph  21 mph  0.00"  67%  43%  50°F  45°F  29.83"
Sun 04:00 PM  61.0°F  71°F  13 mph NW  10 mph  29 mph  0.00"  68%  40%  50°F  44°F  29.86"
Sun 03:00 PM  62.3°F  71°F  17 mph NW  10 mph  29 mph  0.00"  67%  38%  51°F  44°F  29.86"
Sun 02:00 PM  64.6°F  71°F  18 mph NW  9 mph  27 mph  0.00"  63%  37%  51°F  43°F  29.86"
Sun 01:00 PM  70.3°F  71°F  13 mph NW  9 mph  22 mph  0.00"  46%  36%  48°F  42°F  29.86"
Sun 12:00 PM  74.0°F  70°F  10 mph SW  8 mph  21 mph  0.00"  25%  37%  34°F  41°F  29.88"

  1. Current weather data. No green row appears if the current weather data is also the high or low for the current day.
  2. High temperature for the current day.
  3. Low temperature for the current day.

The Anza, California weather pages are a service of WeatherCurrents. The Anza Valley is southwestern Riverside County, east of Temecula and Aguanga, south of Mount San Jacinto and west of Mount Santa Rosa.
Copyright ©Tue May 05 00:59:42 PDT 2026  WeatherCurrents. All rights reserved. - Submit questions and comments - Privacy Policy

This page automatically refreshes every 10 minutes.